TimeCDT,TemperatureF,Dew PointF,Humidity,Sea Level PressureIn,VisibilityMPH,Wind Direction,Wind SpeedMPH,Gust SpeedMPH,PrecipitationIn,Events,Conditions,WindDirDegrees,DateUTC
12:15 AM,60.8,46.4,59,30.12,10.0,Calm,Calm,-,N/A,,Overcast,0,2013-07-03 05:15:00
12:35 AM,60.8,48.2,63,30.12,10.0,Calm,Calm,-,N/A,,Overcast,0,2013-07-03 05:35:00
12:55 AM,60.8,48.2,63,30.12,10.0,Calm,Calm,-,N/A,,Overcast,0,2013-07-03 05:55:00
1:15 AM,60.8,48.2,63,30.12,10.0,Calm,Calm,-,N/A,,Overcast,0,2013-07-03 06:15:00
1:35 AM,57.2,53.6,88,30.12,10.0,Calm,Calm,-,N/A,,Overcast,0,2013-07-03 06:35:00
1:55 AM,57.2,53.6,88,30.12,10.0,Calm,Calm,-,0.01,,Overcast,0,2013-07-03 06:55:00
2:15 AM,57.2,53.6,88,30.11,10.0,Calm,Calm,-,N/A,,Overcast,0,2013-07-03 07:15:00
2:35 AM,57.2,53.6,88,30.10,10.0,Calm,Calm,-,N/A,,Overcast,0,2013-07-03 07:35:00
2:55 AM,57.2,55.4,94,30.10,10.0,Calm,Calm,-,N/A,,Overcast,0,2013-07-03 07:55:00
3:15 AM,57.2,55.4,94,30.10,10.0,NE,3.5,-,N/A,,Overcast,50,2013-07-03 08:15:00
3:35 AM,57.2,55.4,94,30.09,10.0,Calm,Calm,-,N/A,,Overcast,0,2013-07-03 08:35:00
3:55 AM,59.0,55.4,88,30.09,10.0,NNW,5.8,-,N/A,,Overcast,340,2013-07-03 08:55:00
4:15 AM,57.2,53.6,88,30.09,10.0,NNW,3.5,-,N/A,,Overcast,330,2013-07-03 09:15:00
4:35 AM,57.2,55.4,94,30.09,10.0,Calm,Calm,-,N/A,,Overcast,0,2013-07-03 09:35:00
4:55 AM,57.2,55.4,94,30.09,10.0,Calm,Calm,-,N/A,,Overcast,0,2013-07-03 09:55:00
5:15 AM,57.2,55.4,94,30.10,10.0,SW,3.5,-,N/A,,Overcast,220,2013-07-03 10:15:00
5:35 AM,59.0,57.2,94,30.10,10.0,Calm,Calm,-,N/A,,Overcast,0,2013-07-03 10:35:00
5:55 AM,59.0,57.2,94,30.10,10.0,Calm,Calm,-,N/A,,Overcast,0,2013-07-03 10:55:00
6:15 AM,59.0,57.2,94,30.11,10.0,Calm,Calm,-,N/A,,Overcast,0,2013-07-03 11:15:00
6:35 AM,59.0,57.2,94,30.11,10.0,NNE,3.5,-,N/A,,Overcast,30,2013-07-03 11:35:00
6:55 AM,60.8,57.2,88,30.11,10.0,Calm,Calm,-,N/A,,Overcast,0,2013-07-03 11:55:00
7:15 AM,62.6,55.4,77,30.11,10.0,NE,4.6,-,N/A,,Overcast,40,2013-07-03 12:15:00
7:35 AM,62.6,53.6,72,30.12,10.0,NE,4.6,-,N/A,,Overcast,40,2013-07-03 12:35:00
7:55 AM,62.6,53.6,72,30.12,10.0,ENE,3.5,-,N/A,,Overcast,70,2013-07-03 12:55:00
8:15 AM,64.4,53.6,68,30.12,10.0,NE,4.6,-,N/A,,Overcast,50,2013-07-03 13:15:00
8:35 AM,64.4,53.6,68,30.12,10.0,NNE,5.8,-,N/A,,Overcast,30,2013-07-03 13:35:00
8:55 AM,64.4,53.6,68,30.12,10.0,NNE,4.6,-,N/A,,Overcast,30,2013-07-03 13:55:00
9:15 AM,66.2,51.8,60,30.12,10.0,NE,6.9,-,N/A,,Overcast,50,2013-07-03 14:15:00
9:35 AM,68.0,51.8,56,30.12,10.0,ENE,3.5,-,N/A,,Mostly Cloudy,70,2013-07-03 14:35:00
9:55 AM,66.2,51.8,60,30.13,10.0,ESE,3.5,-,N/A,,Overcast,120,2013-07-03 14:55:00
10:15 AM,66.2,51.8,60,30.12,10.0,ENE,6.9,-,N/A,,Overcast,70,2013-07-03 15:15:00
10:35 AM,66.2,50.0,56,30.12,10.0,ENE,6.9,-,N/A,,Overcast,70,2013-07-03 15:35:00
10:55 AM,68.0,51.8,56,30.12,10.0,East,5.8,-,N/A,,Overcast,100,2013-07-03 15:55:00
11:15 AM,68.0,51.8,56,30.11,10.0,East,4.6,-,N/A,,Overcast,80,2013-07-03 16:15:00
11:35 AM,68.0,51.8,56,30.11,10.0,SE,6.9,-,N/A,,Overcast,130,2013-07-03 16:35:00
11:55 AM,69.8,53.6,56,30.11,10.0,ESE,3.5,-,N/A,,Overcast,120,2013-07-03 16:55:00
12:15 PM,69.8,53.6,56,30.11,10.0,ESE,5.8,-,N/A,,Overcast,110,2013-07-03 17:15:00
12:35 PM,71.6,53.6,53,30.11,10.0,East,6.9,-,N/A,,Mostly Cloudy,90,2013-07-03 17:35:00
12:55 PM,71.6,50.0,46,30.10,10.0,ENE,5.8,-,N/A,,Partly Cloudy,60,2013-07-03 17:55:00
1:15 PM,69.8,48.2,46,30.09,10.0,ENE,3.5,-,N/A,,Clear,70,2013-07-03 18:15:00
1:35 PM,71.6,50.0,46,30.09,10.0,ENE,4.6,-,N/A,,Partly Cloudy,70,2013-07-03 18:35:00
1:55 PM,71.6,51.8,50,30.09,10.0,ENE,5.8,-,N/A,,Mostly Cloudy,70,2013-07-03 18:55:00
2:15 PM,69.8,53.6,56,30.09,10.0,SE,8.1,-,N/A,,Mostly Cloudy,130,2013-07-03 19:15:00
2:35 PM,69.8,51.8,53,30.09,10.0,SE,6.9,-,N/A,,Overcast,140,2013-07-03 19:35:00
2:55 PM,68.0,51.8,56,30.09,10.0,SE,6.9,-,N/A,,Overcast,140,2013-07-03 19:55:00
3:15 PM,68.0,48.2,49,30.09,10.0,SE,8.1,-,N/A,,Overcast,140,2013-07-03 20:15:00
3:35 PM,68.0,51.8,56,30.09,10.0,ESE,4.6,-,N/A,,Overcast,120,2013-07-03 20:35:00
3:55 PM,68.0,53.6,60,30.08,10.0,SE,5.8,-,N/A,,Overcast,130,2013-07-03 20:55:00
4:15 PM,68.0,51.8,56,30.07,10.0,ESE,4.6,-,N/A,,Overcast,110,2013-07-03 21:15:00
4:35 PM,66.2,53.6,64,30.07,10.0,Calm,Calm,-,N/A,,Overcast,0,2013-07-03 21:35:00
4:55 PM,69.8,53.6,56,30.07,10.0,East,5.8,-,N/A,,Mostly Cloudy,90,2013-07-03 21:55:00
5:15 PM,69.8,53.6,56,30.06,10.0,East,6.9,-,N/A,,Partly Cloudy,100,2013-07-03 22:15:00
5:35 PM,69.8,53.6,56,30.06,10.0,ESE,6.9,-,N/A,,Scattered Clouds,110,2013-07-03 22:35:00
5:55 PM,66.2,53.6,64,30.06,10.0,ESE,5.8,-,N/A,,Overcast,110,2013-07-03 22:55:00
6:15 PM,66.2,53.6,64,30.05,10.0,ESE,4.6,-,N/A,,Overcast,110,2013-07-03 23:15:00
6:35 PM,66.2,51.8,60,30.04,10.0,East,4.6,-,N/A,,Overcast,100,2013-07-03 23:35:00
6:55 PM,66.2,51.8,60,30.04,10.0,Calm,Calm,-,N/A,,Mostly Cloudy,0,2013-07-03 23:55:00
7:15 PM,66.2,53.6,64,30.05,10.0,ESE,4.6,-,N/A,,Mostly Cloudy,120,2013-07-04 00:15:00
7:35 PM,66.2,53.6,64,30.05,10.0,ESE,4.6,-,N/A,,Overcast,120,2013-07-04 00:35:00
7:55 PM,64.4,53.6,68,30.04,10.0,SE,3.5,-,N/A,,Overcast,130,2013-07-04 00:55:00
8:15 PM,64.4,53.6,68,30.04,10.0,East,5.8,-,N/A,,Overcast,100,2013-07-04 01:15:00
8:35 PM,62.6,51.8,68,30.04,10.0,SSE,3.5,-,N/A,,Scattered Clouds,150,2013-07-04 01:35:00
8:55 PM,62.6,51.8,68,30.04,10.0,Calm,Calm,-,N/A,,Mostly Cloudy,0,2013-07-04 01:55:00
9:15 PM,62.6,53.6,72,30.05,10.0,ESE,4.6,-,N/A,,Overcast,120,2013-07-04 02:15:00
9:35 PM,62.6,53.6,72,30.05,10.0,SE,4.6,-,N/A,,Overcast,130,2013-07-04 02:35:00
9:55 PM,62.6,53.6,72,30.05,10.0,Calm,Calm,-,N/A,,Overcast,0,2013-07-04 02:55:00
10:15 PM,62.6,53.6,72,30.05,10.0,Calm,Calm,-,N/A,,Overcast,0,2013-07-04 03:15:00
10:35 PM,60.8,55.4,82,30.05,10.0,SSW,3.5,-,N/A,,Overcast,210,2013-07-04 03:35:00
10:55 PM,62.6,53.6,72,30.06,10.0,SW,3.5,-,N/A,,Overcast,220,2013-07-04 03:55:00
11:15 PM,62.6,53.6,72,30.05,10.0,SSW,4.6,-,N/A,,Overcast,200,2013-07-04 04:15:00
11:35 PM,62.6,53.6,72,30.05,10.0,SSW,3.5,-,N/A,,Overcast,210,2013-07-04 04:35:00
11:55 PM,62.6,55.4,77,30.05,10.0,South,3.5,-,N/A,,Overcast,190,2013-07-04 04:55:00